createdAt,value
2022-09-04T00:02:26.560Z,18.95
2022-09-04T00:05:11.095Z,18.91
2022-09-04T00:07:48.513Z,18.84
2022-09-04T00:10:36.389Z,18.85
2022-09-04T00:13:12.369Z,18.80
2022-09-04T00:15:48.190Z,18.69
2022-09-04T00:18:23.440Z,18.68
2022-09-04T00:20:57.652Z,18.70
2022-09-04T00:23:44.924Z,18.61
2022-09-04T00:26:21.133Z,18.64
2022-09-04T00:28:51.146Z,18.64
2022-09-04T00:31:34.005Z,18.63
2022-09-04T00:34:19.397Z,18.57
2022-09-04T00:36:51.326Z,18.51
2022-09-04T00:39:25.530Z,18.59
2022-09-04T00:42:08.857Z,18.48
2022-09-04T00:45:11.984Z,18.40
2022-09-04T00:48:21.617Z,18.43
2022-09-04T00:51:11.718Z,18.42
2022-09-04T00:53:51.029Z,18.37
2022-09-04T00:56:52.346Z,18.37
2022-09-04T00:59:55.544Z,18.34
2022-09-04T01:02:43.590Z,18.35
2022-09-04T01:05:47.939Z,18.29
2022-09-04T01:08:16.742Z,18.25
2022-09-04T01:10:58.057Z,18.18
2022-09-04T01:13:27.320Z,18.15
2022-09-04T01:16:13.326Z,18.11
2022-09-04T01:18:53.677Z,18.08
2022-09-04T01:21:35.359Z,18.14
2022-09-04T01:24:29.275Z,18.11
2022-09-04T01:27:04.778Z,18.14
2022-09-04T01:29:50.187Z,18.03
2022-09-04T01:32:31.533Z,18.10
2022-09-04T01:35:12.933Z,18.07
2022-09-04T01:37:52.440Z,18.05
2022-09-04T01:40:35.603Z,17.97
2022-09-04T01:43:08.420Z,17.99
2022-09-04T01:45:55.480Z,18.00
2022-09-04T01:48:49.595Z,17.90
2022-09-04T01:51:37.787Z,17.89
2022-09-04T01:54:28.935Z,17.76
2022-09-04T01:57:14.178Z,17.79
2022-09-04T01:59:55.932Z,17.74
2022-09-04T02:02:32.241Z,17.53
2022-09-04T02:05:08.570Z,17.36
2022-09-04T02:08:29.822Z,17.38
2022-09-04T02:11:05.059Z,17.30
2022-09-04T02:13:46.601Z,17.30
2022-09-04T02:16:26.503Z,17.32
2022-09-04T02:19:24.141Z,17.30
2022-09-04T02:22:01.695Z,17.28
2022-09-04T02:24:44.137Z,17.36
2022-09-04T02:27:29.793Z,17.42
2022-09-04T02:30:04.114Z,17.42
2022-09-04T02:32:37.846Z,17.43
2022-09-04T02:35:26.723Z,17.44
2022-09-04T02:38:17.471Z,17.38
2022-09-04T02:40:51.758Z,17.31
2022-09-04T02:43:35.523Z,17.37
2022-09-04T02:46:37.369Z,17.34
2022-09-04T02:49:24.851Z,17.29
2022-09-04T02:52:09.200Z,17.30
2022-09-04T02:54:49.223Z,17.35
2022-09-04T02:57:56.540Z,17.32
2022-09-04T03:00:39.430Z,17.40
2022-09-04T03:03:18.748Z,17.45
2022-09-04T03:06:06.890Z,17.39
2022-09-04T03:08:43.409Z,17.37
2022-09-04T03:11:35.858Z,17.36
2022-09-04T03:14:24.596Z,17.36
2022-09-04T03:17:11.962Z,17.31
2022-09-04T03:20:16.835Z,17.35
2022-09-04T03:23:01.610Z,17.32
2022-09-04T03:26:12.761Z,17.30
2022-09-04T03:28:54.658Z,17.30
2022-09-04T03:31:24.092Z,17.24
2022-09-04T03:34:14.188Z,17.23
2022-09-04T03:36:58.866Z,17.27
2022-09-04T03:39:28.374Z,17.23
2022-09-04T03:42:05.821Z,17.23
2022-09-04T03:45:24.522Z,17.18
2022-09-04T03:48:17.582Z,17.19
2022-09-04T03:50:58.949Z,17.23
2022-09-04T03:53:43.539Z,17.21
2022-09-04T03:56:31.674Z,17.16
2022-09-04T03:59:04.839Z,17.07
2022-09-04T04:01:55.105Z,17.13
2022-09-04T04:04:52.654Z,17.14
2022-09-04T04:07:19.815Z,17.08
2022-09-04T04:10:03.331Z,17.12
2022-09-04T04:13:15.101Z,17.06
2022-09-04T04:15:55.880Z,17.04
2022-09-04T04:18:31.581Z,17.02
2022-09-04T04:21:01.055Z,16.91
2022-09-04T04:24:03.069Z,16.94
2022-09-04T04:26:41.640Z,16.84
2022-09-04T04:29:37.904Z,16.83
2022-09-04T04:32:31.563Z,16.77
2022-09-04T04:35:08.433Z,16.82
2022-09-04T04:37:56.213Z,16.84
2022-09-04T04:40:34.706Z,16.82
2022-09-04T04:43:14.020Z,16.81
2022-09-04T04:46:02.279Z,16.77
2022-09-04T04:49:04.571Z,16.65
2022-09-04T04:51:40.794Z,16.65
2022-09-04T04:54:29.996Z,16.55
2022-09-04T04:57:21.015Z,16.51
2022-09-04T05:00:07.605Z,16.46
2022-09-04T05:02:53.188Z,16.56
2022-09-04T05:05:47.281Z,16.55
2022-09-04T05:08:50.899Z,16.50
2022-09-04T05:11:45.406Z,16.56
2022-09-04T05:14:36.901Z,16.57
2022-09-04T05:17:11.733Z,16.49
2022-09-04T05:20:15.961Z,16.53
2022-09-04T05:23:17.476Z,16.63
2022-09-04T05:25:58.567Z,16.70
2022-09-04T05:28:55.997Z,16.75
2022-09-04T05:31:32.545Z,16.84
2022-09-04T05:34:11.209Z,16.96
2022-09-04T05:36:40.354Z,16.94
2022-09-04T05:39:18.868Z,16.87
2022-09-04T05:42:30.589Z,16.90
2022-09-04T05:45:35.861Z,16.86
2022-09-04T05:48:14.862Z,16.99
2022-09-04T05:51:18.605Z,16.87
2022-09-04T05:53:56.217Z,17.04
2022-09-04T05:56:44.097Z,17.12
2022-09-04T05:59:35.168Z,17.26
2022-09-04T06:02:07.674Z,17.23
2022-09-04T06:04:53.005Z,17.17
2022-09-04T06:07:50.620Z,17.19
2022-09-04T06:10:25.978Z,17.32
2022-09-04T06:13:37.603Z,17.46
2022-09-04T06:16:04.024Z,17.46
2022-09-04T06:18:30.479Z,17.77
2022-09-04T06:21:24.603Z,17.95
2022-09-04T06:24:12.953Z,18.01
2022-09-04T06:27:18.993Z,17.79
2022-09-04T06:30:08.846Z,17.90
2022-09-04T06:32:38.294Z,17.92
2022-09-04T06:35:32.974Z,18.07
2022-09-04T06:38:41.665Z,18.07
2022-09-04T06:41:11.148Z,18.19
2022-09-04T06:43:37.890Z,18.20
2022-09-04T06:46:13.729Z,18.37
2022-09-04T06:49:16.273Z,18.53
2022-09-04T06:51:48.736Z,18.50
2022-09-04T06:54:19.684Z,18.49
2022-09-04T06:57:13.979Z,18.52
2022-09-04T06:59:40.421Z,18.67
2022-09-04T07:02:21.974Z,18.64
2022-09-04T07:05:14.783Z,18.67
2022-09-04T07:08:08.215Z,18.70
2022-09-04T07:10:41.391Z,18.66
2022-09-04T07:13:26.457Z,18.85
2022-09-04T07:16:07.774Z,18.99
2022-09-04T07:19:07.791Z,19.38
2022-09-04T07:21:58.928Z,19.38
2022-09-04T07:25:00.753Z,19.49
2022-09-04T07:27:43.741Z,19.59
2022-09-04T07:30:13.766Z,19.62
2022-09-04T07:32:59.337Z,19.80
2022-09-04T07:35:48.623Z,19.89
2022-09-04T07:38:27.612Z,20.13
2022-09-04T07:41:10.540Z,20.14
2022-09-04T07:43:54.618Z,20.19
2022-09-04T07:46:51.760Z,20.18
2022-09-04T07:49:51.544Z,20.42
2022-09-04T07:53:03.280Z,20.54
2022-09-04T07:55:50.831Z,20.66
2022-09-04T07:58:50.427Z,20.49
2022-09-04T08:01:28.934Z,20.47
2022-09-04T08:03:58.211Z,20.53
2022-09-04T08:06:33.656Z,20.28
2022-09-04T08:09:36.839Z,20.60
2022-09-04T08:12:26.274Z,20.76
2022-09-04T08:14:52.617Z,20.76
2022-09-04T08:17:25.501Z,20.94
2022-09-04T08:20:12.650Z,21.07
2022-09-04T08:22:57.578Z,21.11
2022-09-04T08:25:51.574Z,21.62
2022-09-04T08:28:46.579Z,21.55
2022-09-04T08:31:36.727Z,21.69
2022-09-04T08:34:28.389Z,21.89
2022-09-04T08:37:20.820Z,21.99
2022-09-04T08:40:46.606Z,21.95
2022-09-04T08:43:22.716Z,22.12
2022-09-04T08:46:31.740Z,22.07
2022-09-04T08:49:13.199Z,22.18
2022-09-04T08:52:07.079Z,22.12
2022-09-04T08:55:00.680Z,22.38
2022-09-04T08:57:48.496Z,22.56
2022-09-04T09:00:36.343Z,22.61
2022-09-04T09:03:36.083Z,22.73
2022-09-04T09:06:39.713Z,22.66
2022-09-04T09:09:27.984Z,22.75
2022-09-04T09:12:15.668Z,22.82
2022-09-04T09:15:04.110Z,23.03
2022-09-04T09:17:39.285Z,23.01
2022-09-04T09:20:48.872Z,23.54
2022-09-04T09:23:29.881Z,23.20
2022-09-04T09:26:18.316Z,23.37
2022-09-04T09:28:50.790Z,23.67
2022-09-04T09:31:39.204Z,23.81
2022-09-04T09:34:18.984Z,23.86
2022-09-04T09:37:20.459Z,24.17
2022-09-04T09:40:24.763Z,24.21
2022-09-04T09:43:01.891Z,24.35
2022-09-04T09:45:53.557Z,24.41
2022-09-04T09:48:49.411Z,24.54
2022-09-04T09:51:45.135Z,24.36
2022-09-04T09:54:28.303Z,24.58
2022-09-04T09:57:21.177Z,24.64
2022-09-04T10:00:10.740Z,24.61
2022-09-04T10:03:01.719Z,24.48
2022-09-04T10:05:46.543Z,24.70
2022-09-04T10:08:13.030Z,25.09
2022-09-04T10:11:10.288Z,25.38
2022-09-04T10:13:49.251Z,25.33
2022-09-04T10:16:34.986Z,25.38
2022-09-04T10:19:46.439Z,25.81
2022-09-04T10:22:51.519Z,25.83
2022-09-04T10:25:37.040Z,25.59
2022-09-04T10:28:09.449Z,25.84
2022-09-04T10:30:53.159Z,26.24
2022-09-04T10:34:01.665Z,26.38
2022-09-04T10:36:37.857Z,26.58
2022-09-04T10:39:32.943Z,26.58
2022-09-04T10:42:35.021Z,26.67
2022-09-04T10:45:20.150Z,26.62
2022-09-04T10:47:55.784Z,26.52
2022-09-04T10:51:04.191Z,26.56
2022-09-04T10:53:52.771Z,26.84
2022-09-04T10:56:28.866Z,26.34
2022-09-04T10:59:27.757Z,26.39
2022-09-04T11:02:15.463Z,26.67
2022-09-04T11:05:15.676Z,27.08
2022-09-04T11:07:52.329Z,27.06
2022-09-04T11:10:31.651Z,27.19
2022-09-04T11:13:17.005Z,27.03
2022-09-04T11:15:50.320Z,27.10
2022-09-04T11:18:45.449Z,27.18
2022-09-04T11:21:49.448Z,27.58
2022-09-04T11:24:47.206Z,27.79
2022-09-04T11:27:32.367Z,28.01
2022-09-04T11:30:05.345Z,28.16
2022-09-04T11:33:14.197Z,27.69
2022-09-04T11:36:08.404Z,27.14
2022-09-04T11:39:06.183Z,27.34
2022-09-04T11:42:27.669Z,26.86
2022-09-04T11:45:17.207Z,27.15
2022-09-04T11:47:52.721Z,27.21
2022-09-04T11:50:28.185Z,27.63
2022-09-04T11:53:12.759Z,27.70
2022-09-04T11:55:52.536Z,27.51
2022-09-04T11:58:22.294Z,27.94
2022-09-04T12:01:10.398Z,28.38
2022-09-04T12:03:49.734Z,29.01
2022-09-04T12:06:49.438Z,28.99
2022-09-04T12:09:31.935Z,29.11
2022-09-04T12:12:34.411Z,28.89
2022-09-04T12:15:22.185Z,29.04
2022-09-04T12:18:47.233Z,28.76
2022-09-04T12:21:37.768Z,28.30
2022-09-04T12:24:34.940Z,27.81
2022-09-04T12:27:32.109Z,28.17
2022-09-04T12:30:07.927Z,27.76
2022-09-04T12:33:08.539Z,28.15
2022-09-04T12:35:52.346Z,27.68
2022-09-04T12:38:55.833Z,28.21
2022-09-04T12:41:39.779Z,28.67
2022-09-04T12:44:34.393Z,28.26
2022-09-04T12:47:33.089Z,28.36
2022-09-04T12:50:28.333Z,28.19
2022-09-04T12:53:09.727Z,28.32
2022-09-04T12:55:45.618Z,28.67
2022-09-04T12:58:50.320Z,28.83
2022-09-04T13:01:33.381Z,29.09
2022-09-04T13:04:11.798Z,29.23
2022-09-04T13:06:44.264Z,28.80
2022-09-04T13:09:25.780Z,28.72
2022-09-04T13:12:17.107Z,28.64
2022-09-04T13:15:03.190Z,28.88
2022-09-04T13:17:52.942Z,29.44
2022-09-04T13:20:35.253Z,29.25
2022-09-04T13:23:07.684Z,29.02
2022-09-04T13:25:55.785Z,29.23
2022-09-04T13:28:37.901Z,29.56
2022-09-04T13:31:43.738Z,28.87
2022-09-04T13:34:20.873Z,29.68
2022-09-04T13:37:17.223Z,29.75
2022-09-04T13:40:12.388Z,29.42
2022-09-04T13:42:57.187Z,30.31
2022-09-04T13:45:26.729Z,29.53
2022-09-04T13:48:00.503Z,29.46
2022-09-04T13:50:32.126Z,29.40
2022-09-04T13:53:16.671Z,29.51
2022-09-04T13:55:54.300Z,30.23
2022-09-04T13:58:28.116Z,29.39
2022-09-04T14:01:01.362Z,29.68
2022-09-04T14:03:39.996Z,28.91
2022-09-04T14:06:10.193Z,29.41
2022-09-04T14:08:39.806Z,29.60
2022-09-04T14:11:18.141Z,29.74
2022-09-04T14:13:51.509Z,29.61
2022-09-04T14:16:18.981Z,29.51
2022-09-04T14:19:00.419Z,29.91
2022-09-04T14:21:45.731Z,29.85
2022-09-04T14:24:22.957Z,29.57
2022-09-04T14:27:16.700Z,29.70
2022-09-04T14:30:07.528Z,29.64
2022-09-04T14:32:47.651Z,29.77
2022-09-04T14:35:27.820Z,30.07
2022-09-04T14:38:10.077Z,30.31
2022-09-04T14:40:43.673Z,30.47
2022-09-04T14:43:10.073Z,30.29
2022-09-04T14:45:55.364Z,30.05
2022-09-04T14:48:24.164Z,29.06
2022-09-04T14:50:55.766Z,29.56
2022-09-04T14:53:31.778Z,29.84
2022-09-04T14:56:20.268Z,29.52
2022-09-04T14:59:17.462Z,29.20
2022-09-04T15:02:08.713Z,29.50
2022-09-04T15:04:48.378Z,29.76
2022-09-04T15:07:24.770Z,29.76
2022-09-04T15:09:54.710Z,29.97
2022-09-04T15:12:34.354Z,30.27
2022-09-04T15:15:14.353Z,30.64
2022-09-04T15:17:50.354Z,30.48
2022-09-04T15:20:28.282Z,30.37
2022-09-04T15:23:19.898Z,30.52
2022-09-04T15:25:59.091Z,30.16
2022-09-04T15:28:43.627Z,29.88
2022-09-04T15:31:16.446Z,29.67
2022-09-04T15:33:45.676Z,29.70
2022-09-04T15:36:23.831Z,29.37
2022-09-04T15:38:59.864Z,29.40
2022-09-04T15:41:38.998Z,29.73
2022-09-04T15:44:19.402Z,29.71
2022-09-04T15:46:51.178Z,29.89
2022-09-04T15:49:32.915Z,29.90
2022-09-04T15:52:12.610Z,29.45
2022-09-04T15:54:41.854Z,29.38
2022-09-04T15:57:32.042Z,29.61
2022-09-04T16:00:09.373Z,29.66
2022-09-04T16:02:51.463Z,29.53
2022-09-04T16:05:27.274Z,29.82
2022-09-04T16:08:03.646Z,29.81
2022-09-04T16:10:41.781Z,29.82
2022-09-04T16:13:31.347Z,29.59
2022-09-04T16:16:30.784Z,29.50
2022-09-04T16:19:06.598Z,29.63
2022-09-04T16:21:40.819Z,29.34
2022-09-04T16:24:15.212Z,29.46
2022-09-04T16:26:50.411Z,29.32
2022-09-04T16:29:26.524Z,29.38
2022-09-04T16:31:57.562Z,29.40
2022-09-04T16:34:33.125Z,29.10
2022-09-04T16:37:22.524Z,29.29
2022-09-04T16:40:05.122Z,29.23
2022-09-04T16:42:40.936Z,29.09
2022-09-04T16:45:37.266Z,28.60
2022-09-04T16:48:34.922Z,28.44
2022-09-04T16:51:41.903Z,28.62
2022-09-04T16:54:37.203Z,28.88
2022-09-04T16:57:15.570Z,29.00
2022-09-04T16:59:48.464Z,28.98
2022-09-04T17:02:46.940Z,28.98
2022-09-04T17:05:27.890Z,28.99
2022-09-04T17:08:02.048Z,29.02
2022-09-04T17:10:41.285Z,29.03
2022-09-04T17:13:16.800Z,28.70
2022-09-04T17:15:57.965Z,28.50
2022-09-04T17:18:28.781Z,28.33
2022-09-04T17:27:00.356Z,28.39
2022-09-04T17:29:15.228Z,28.30
2022-09-04T17:29:17.546Z,28.29
2022-09-04T17:30:55.610Z,28.07
2022-09-04T17:40:06.247Z,28.02
2022-09-04T17:40:36.003Z,27.92
2022-09-04T17:40:56.106Z,27.94
2022-09-04T17:42:57.067Z,27.48
2022-09-04T17:45:45.989Z,27.56
2022-09-04T17:48:25.003Z,27.64
2022-09-04T17:50:57.185Z,27.54
2022-09-04T17:53:34.359Z,27.48
2022-09-04T17:56:07.157Z,27.50
2022-09-04T17:58:42.519Z,27.29
2022-09-04T18:01:19.966Z,27.21
2022-09-04T18:04:22.864Z,27.34
2022-09-04T18:07:33.671Z,27.26
2022-09-04T18:10:03.393Z,27.29
2022-09-04T18:12:38.709Z,27.18
2022-09-04T18:15:33.429Z,27.13
2022-09-04T18:18:12.161Z,27.05
2022-09-04T18:20:51.717Z,26.99
2022-09-04T18:23:50.867Z,26.72
2022-09-04T18:26:25.605Z,26.82
2022-09-04T18:30:57.270Z,26.86
2022-09-04T18:37:12.713Z,26.84
2022-09-04T18:37:20.115Z,26.62
2022-09-04T18:39:08.185Z,26.65
2022-09-04T18:48:17.353Z,26.47
2022-09-04T18:50:30.794Z,26.32
2022-09-04T18:50:40.367Z,26.19
2022-09-04T18:53:43.522Z,26.04
2022-09-04T18:56:26.465Z,25.93
2022-09-04T18:59:19.224Z,25.97
2022-09-04T19:02:14.544Z,25.83
2022-09-04T19:04:51.800Z,25.79
2022-09-04T19:07:31.686Z,25.65
2022-09-04T19:10:25.740Z,25.66
2022-09-04T19:12:53.749Z,25.61
2022-09-04T19:15:50.448Z,25.41
2022-09-04T19:18:43.613Z,25.13
2022-09-04T19:21:10.727Z,25.19
2022-09-04T19:23:53.392Z,25.13
2022-09-04T19:26:26.222Z,25.13
2022-09-04T19:29:12.214Z,25.16
2022-09-04T19:31:48.830Z,25.33
2022-09-04T19:34:33.571Z,25.19
2022-09-04T19:37:44.789Z,25.25
2022-09-04T19:46:02.152Z,25.21
2022-09-04T19:46:08.069Z,25.17
2022-09-04T19:52:05.007Z,25.16
2022-09-04T19:53:30.005Z,25.16
2022-09-04T19:55:24.332Z,25.21
2022-09-04T19:58:04.802Z,25.21
2022-09-04T20:00:43.944Z,25.12
2022-09-04T20:03:48.569Z,25.11
2022-09-04T20:06:27.037Z,25.08
2022-09-04T20:09:02.715Z,25.05
2022-09-04T20:11:46.381Z,25.07
2022-09-04T20:14:27.689Z,25.07
2022-09-04T20:17:01.180Z,24.90
2022-09-04T20:19:43.129Z,24.60
2022-09-04T20:22:31.259Z,24.81
2022-09-04T20:25:06.712Z,24.92
2022-09-04T20:27:36.702Z,24.75
2022-09-04T20:30:16.602Z,24.75
2022-09-04T20:32:56.544Z,24.72
2022-09-04T20:36:15.788Z,24.69
2022-09-04T20:38:57.851Z,24.58
2022-09-04T20:41:32.999Z,24.49
2022-09-04T20:48:12.597Z,24.46
2022-09-04T20:52:42.143Z,24.42
2022-09-04T20:53:06.250Z,24.48
2022-09-04T20:54:28.583Z,24.46
2022-09-04T21:01:38.593Z,24.36
2022-09-04T21:03:21.876Z,24.31
2022-09-04T21:06:07.333Z,23.91
2022-09-04T21:08:52.407Z,23.87
2022-09-04T21:11:40.702Z,23.88
2022-09-04T21:14:18.655Z,23.86
2022-09-04T21:16:53.967Z,23.77
2022-09-04T21:20:10.882Z,23.60
2022-09-04T21:22:55.421Z,23.56
2022-09-04T21:25:21.839Z,23.53
2022-09-04T21:28:28.831Z,23.41
2022-09-04T21:31:31.046Z,23.28
2022-09-04T21:34:25.383Z,23.32
2022-09-04T21:37:08.587Z,23.26
2022-09-04T21:39:47.033Z,23.29
2022-09-04T21:42:19.192Z,23.26
2022-09-04T21:45:13.394Z,23.29
2022-09-04T21:47:59.596Z,23.22
2022-09-04T21:50:30.412Z,23.18
2022-09-04T21:53:24.985Z,23.15
2022-09-04T22:02:26.845Z,23.04
2022-09-04T22:02:40.141Z,22.77
2022-09-04T22:02:51.531Z,22.75
2022-09-04T22:05:51.429Z,22.66
2022-09-04T22:13:26.468Z,22.61
2022-09-04T22:13:41.990Z,22.50
2022-09-04T22:14:25.400Z,22.42
2022-09-04T22:17:13.167Z,22.26
2022-09-04T22:20:04.406Z,22.29
2022-09-04T22:22:46.150Z,22.38
2022-09-04T22:25:41.268Z,22.19
2022-09-04T22:28:30.027Z,22.17
2022-09-04T22:31:22.419Z,22.18
2022-09-04T22:34:22.234Z,22.16
2022-09-04T22:37:09.973Z,22.08
2022-09-04T22:40:14.048Z,21.94
2022-09-04T22:42:52.058Z,21.99
2022-09-04T22:45:18.472Z,22.00
2022-09-04T22:48:03.759Z,21.93
2022-09-04T22:51:06.081Z,21.93
2022-09-04T22:53:47.532Z,21.75
2022-09-04T22:56:25.474Z,21.70
2022-09-04T22:59:37.211Z,21.72
2022-09-04T23:03:04.250Z,21.62
2022-09-04T23:05:28.419Z,21.54
2022-09-04T23:12:30.272Z,21.16
2022-09-04T23:14:00.478Z,20.85
2022-09-04T23:14:39.217Z,21.14
2022-09-04T23:17:32.594Z,21.28
2022-09-04T23:26:39.420Z,21.37
2022-09-04T23:26:46.044Z,21.38
2022-09-04T23:26:59.457Z,21.28
2022-09-04T23:29:49.329Z,21.14
2022-09-04T23:32:39.600Z,20.99
2022-09-04T23:35:15.581Z,21.10
2022-09-04T23:38:00.074Z,21.01
2022-09-04T23:40:34.611Z,21.14
2022-09-04T23:43:33.403Z,21.00
2022-09-04T23:46:38.607Z,20.89
2022-09-04T23:49:32.049Z,20.63
2022-09-04T23:52:07.865Z,20.30
2022-09-04T23:54:55.490Z,20.63
2022-09-04T23:57:29.036Z,20.60
